sensor_id;sensor_type;location;lat;lon;timestamp;pressure;altitude;pressure_sealevel;temperature;humidity
6198;BME280;3132;42.622;23.328;2023-07-28T00:02:12;92936.16;;;14.66;64.51
6198;BME280;3132;42.622;23.328;2023-07-28T00:04:38;92931.00;;;14.61;64.97
6198;BME280;3132;42.622;23.328;2023-07-28T00:07:04;92934.09;;;14.63;65.61
6198;BME280;3132;42.622;23.328;2023-07-28T00:09:30;92932.06;;;14.46;65.20
6198;BME280;3132;42.622;23.328;2023-07-28T00:11:59;92928.69;;;14.45;64.86
6198;BME280;3132;42.622;23.328;2023-07-28T00:14:26;92933.06;;;14.36;64.81
6198;BME280;3132;42.622;23.328;2023-07-28T00:16:52;92925.38;;;14.40;65.13
6198;BME280;3132;42.622;23.328;2023-07-28T00:19:21;92930.53;;;14.31;65.54
6198;BME280;3132;42.622;23.328;2023-07-28T00:21:48;92908.25;;;14.15;65.29
6198;BME280;3132;42.622;23.328;2023-07-28T00:24:14;92921.88;;;14.17;64.45
6198;BME280;3132;42.622;23.328;2023-07-28T00:26:39;92923.63;;;14.35;63.79
6198;BME280;3132;42.622;23.328;2023-07-28T00:29:04;92910.38;;;14.13;63.79
6198;BME280;3132;42.622;23.328;2023-07-28T00:31:32;92916.03;;;14.20;63.08
6198;BME280;3132;42.622;23.328;2023-07-28T00:33:57;92902.63;;;14.08;62.84
6198;BME280;3132;42.622;23.328;2023-07-28T00:36:22;92908.34;;;14.10;63.50
6198;BME280;3132;42.622;23.328;2023-07-28T00:38:48;92900.56;;;14.05;64.39
6198;BME280;3132;42.622;23.328;2023-07-28T00:41:13;92920.88;;;14.13;63.94
6198;BME280;3132;42.622;23.328;2023-07-28T00:43:39;92922.25;;;14.24;63.50
6198;BME280;3132;42.622;23.328;2023-07-28T00:46:04;92922.25;;;14.24;63.25
6198;BME280;3132;42.622;23.328;2023-07-28T00:48:29;92913.28;;;14.12;63.07
6198;BME280;3132;42.622;23.328;2023-07-28T00:50:55;92916.78;;;14.07;63.42
6198;BME280;3132;42.622;23.328;2023-07-28T00:53:23;92919.41;;;14.07;63.64
6198;BME280;3132;42.622;23.328;2023-07-28T00:55:49;92916.22;;;14.10;63.73
6198;BME280;3132;42.622;23.328;2023-07-28T00:58:14;92917.97;;;14.15;63.84
6198;BME280;3132;42.622;23.328;2023-07-28T01:00:40;92915.44;;;14.10;64.40
6198;BME280;3132;42.622;23.328;2023-07-28T01:03:05;92920.13;;;14.13;63.56
6198;BME280;3132;42.622;23.328;2023-07-28T01:08:42;92904.94;;;13.96;64.52
6198;BME280;3132;42.622;23.328;2023-07-28T01:11:08;92885.38;;;14.02;63.80
6198;BME280;3132;42.622;23.328;2023-07-28T01:13:33;92919.53;;;14.16;64.02
6198;BME280;3132;42.622;23.328;2023-07-28T01:15:59;92918.47;;;13.90;66.31
6198;BME280;3132;42.622;23.328;2023-07-28T01:18:26;92917.47;;;13.72;65.77
6198;BME280;3132;42.622;23.328;2023-07-28T01:20:55;92886.94;;;13.63;66.03
6198;BME280;3132;42.622;23.328;2023-07-28T01:23:44;92915.06;;;13.89;64.86
6198;BME280;3132;42.622;23.328;2023-07-28T01:26:16;92908.31;;;13.70;66.66
6198;BME280;3132;42.622;23.328;2023-07-28T01:28:43;92906.75;;;13.82;66.50
6198;BME280;3132;42.622;23.328;2023-07-28T01:31:08;92903.75;;;13.75;65.99
6198;BME280;3132;42.622;23.328;2023-07-28T01:33:35;92907.53;;;13.69;66.55
6198;BME280;3132;42.622;23.328;2023-07-28T01:36:00;92902.59;;;13.36;67.90
6198;BME280;3132;42.622;23.328;2023-07-28T01:38:29;92909.72;;;13.49;69.13
6198;BME280;3132;42.622;23.328;2023-07-28T01:40:54;92904.47;;;13.35;70.11
6198;BME280;3132;42.622;23.328;2023-07-28T01:43:20;92905.84;;;13.46;70.22
6198;BME280;3132;42.622;23.328;2023-07-28T01:45:45;92910.84;;;13.61;69.54
6198;BME280;3132;42.622;23.328;2023-07-28T01:48:11;92899.41;;;13.39;68.79
6198;BME280;3132;42.622;23.328;2023-07-28T01:50:37;92906.69;;;13.42;68.74
6198;BME280;3132;42.622;23.328;2023-07-28T01:53:04;92909.47;;;13.18;70.15
6198;BME280;3132;42.622;23.328;2023-07-28T01:55:30;92905.56;;;12.97;71.65
6198;BME280;3132;42.622;23.328;2023-07-28T01:57:57;92912.81;;;13.05;71.00
6198;BME280;3132;42.622;23.328;2023-07-28T02:00:23;92922.22;;;13.06;70.18
6198;BME280;3132;42.622;23.328;2023-07-28T02:02:49;92911.88;;;12.96;69.92
6198;BME280;3132;42.622;23.328;2023-07-28T02:05:15;92923.28;;;12.86;70.09
6198;BME280;3132;42.622;23.328;2023-07-28T02:07:41;92919.81;;;12.91;70.18
6198;BME280;3132;42.622;23.328;2023-07-28T02:10:07;92899.25;;;12.98;69.71
6198;BME280;3132;42.622;23.328;2023-07-28T02:12:32;92909.09;;;13.06;69.97
6198;BME280;3132;42.622;23.328;2023-07-28T02:14:58;92918.00;;;13.24;70.01
6198;BME280;3132;42.622;23.328;2023-07-28T02:17:23;92891.91;;;13.00;71.34
6198;BME280;3132;42.622;23.328;2023-07-28T02:19:48;92910.13;;;13.10;72.09
6198;BME280;3132;42.622;23.328;2023-07-28T02:22:14;92909.09;;;13.06;72.95
6198;BME280;3132;42.622;23.328;2023-07-28T02:24:40;92907.09;;;12.98;72.88
6198;BME280;3132;42.622;23.328;2023-07-28T02:27:05;92918.16;;;12.95;72.51
6198;BME280;3132;42.622;23.328;2023-07-28T02:29:30;92912.88;;;13.00;73.04
6198;BME280;3132;42.622;23.328;2023-07-28T02:31:56;92896.81;;;12.69;74.88
6198;BME280;3132;42.622;23.328;2023-07-28T02:34:21;92915.69;;;12.85;74.51
6198;BME280;3132;42.622;23.328;2023-07-28T02:36:47;92917.69;;;12.74;75.65
6198;BME280;3132;42.622;23.328;2023-07-28T02:39:13;92914.56;;;12.91;74.61
6198;BME280;3132;42.622;23.328;2023-07-28T02:41:38;92919.09;;;12.85;74.13
6198;BME280;3132;42.622;23.328;2023-07-28T02:44:03;92905.00;;;12.63;73.98
6198;BME280;3132;42.622;23.328;2023-07-28T02:46:29;92914.06;;;12.52;73.71
6198;BME280;3132;42.622;23.328;2023-07-28T02:48:54;92920.72;;;12.63;74.40
6198;BME280;3132;42.622;23.328;2023-07-28T02:51:19;92903.81;;;12.55;74.75
6198;BME280;3132;42.622;23.328;2023-07-28T02:53:45;92922.09;;;12.60;75.19
6198;BME280;3132;42.622;23.328;2023-07-28T02:56:10;92902.38;;;12.63;75.04
6198;BME280;3132;42.622;23.328;2023-07-28T02:58:36;92899.19;;;12.47;76.32
6198;BME280;3132;42.622;23.328;2023-07-28T03:01:01;92919.25;;;12.57;75.94
6198;BME280;3132;42.622;23.328;2023-07-28T03:03:26;92914.63;;;12.67;75.64
6198;BME280;3132;42.622;23.328;2023-07-28T03:05:52;92903.03;;;12.55;75.69
6198;BME280;3132;42.622;23.328;2023-07-28T03:08:19;92902.50;;;12.53;75.29
6198;BME280;3132;42.622;23.328;2023-07-28T03:10:45;92913.78;;;12.53;76.16
6198;BME280;3132;42.622;23.328;2023-07-28T03:13:10;92919.44;;;12.42;77.08
6198;BME280;3132;42.622;23.328;2023-07-28T03:15:35;92917.25;;;12.49;76.50
6198;BME280;3132;42.622;23.328;2023-07-28T03:18:01;92918.66;;;12.60;75.54
6198;BME280;3132;42.622;23.328;2023-07-28T03:20:26;92912.34;;;12.42;76.67
6198;BME280;3132;42.622;23.328;2023-07-28T03:22:52;92921.34;;;12.55;76.71
6198;BME280;3132;42.622;23.328;2023-07-28T03:25:17;92920.50;;;12.78;76.12
6198;BME280;3132;42.622;23.328;2023-07-28T03:27:42;92924.94;;;13.01;74.80
6198;BME280;3132;42.622;23.328;2023-07-28T03:30:08;92925.44;;;12.98;75.01
6198;BME280;3132;42.622;23.328;2023-07-28T03:32:36;92933.53;;;13.20;74.43
6198;BME280;3132;42.622;23.328;2023-07-28T03:35:02;92927.13;;;13.26;74.67
6198;BME280;3132;42.622;23.328;2023-07-28T03:37:33;92933.38;;;13.30;73.89
6198;BME280;3132;42.622;23.328;2023-07-28T03:39:58;92940.97;;;13.32;75.01
6198;BME280;3132;42.622;23.328;2023-07-28T03:42:24;92928.66;;;13.32;75.26
6198;BME280;3132;42.622;23.328;2023-07-28T03:44:50;92938.06;;;13.33;75.36
6198;BME280;3132;42.622;23.328;2023-07-28T03:47:15;92928.50;;;13.24;76.19
6198;BME280;3132;42.622;23.328;2023-07-28T03:49:41;92947.97;;;13.36;76.67
6198;BME280;3132;42.622;23.328;2023-07-28T03:52:06;92939.84;;;13.51;76.44
6198;BME280;3132;42.622;23.328;2023-07-28T03:54:32;92921.97;;;13.53;77.49
6198;BME280;3132;42.622;23.328;2023-07-28T03:56:57;92937.16;;;13.56;76.64
6198;BME280;3132;42.622;23.328;2023-07-28T03:59:22;92943.78;;;13.67;75.88
6198;BME280;3132;42.622;23.328;2023-07-28T04:01:48;92940.06;;;13.68;76.01
6198;BME280;3132;42.622;23.328;2023-07-28T04:04:13;92941.81;;;13.59;78.05
6198;BME280;3132;42.622;23.328;2023-07-28T04:06:46;92941.06;;;13.72;78.03
6198;BME280;3132;42.622;23.328;2023-07-28T04:09:14;92939.50;;;13.71;76.89
6198;BME280;3132;42.622;23.328;2023-07-28T04:11:40;92947.34;;;13.90;77.84
6198;BME280;3132;42.622;23.328;2023-07-28T04:14:06;92955.75;;;13.87;77.90
6198;BME280;3132;42.622;23.328;2023-07-28T04:16:31;92941.84;;;13.73;79.26
6198;BME280;3132;42.622;23.328;2023-07-28T04:18:57;92951.41;;;14.09;77.62
6198;BME280;3132;42.622;23.328;2023-07-28T04:21:23;92937.41;;;14.00;77.66
6198;BME280;3132;42.622;23.328;2023-07-28T04:23:48;92948.72;;;14.14;75.48
6198;BME280;3132;42.622;23.328;2023-07-28T04:26:14;92948.16;;;14.31;73.96
6198;BME280;3132;42.622;23.328;2023-07-28T04:28:39;92954.16;;;14.59;73.86
6198;BME280;3132;42.622;23.328;2023-07-28T04:31:05;92952.22;;;14.64;72.96
6198;BME280;3132;42.622;23.328;2023-07-28T04:33:30;92950.13;;;14.75;71.90
6198;BME280;3132;42.622;23.328;2023-07-28T04:35:56;92961.06;;;15.04;68.82
6198;BME280;3132;42.622;23.328;2023-07-28T04:38:21;92956.81;;;14.94;69.06
6198;BME280;3132;42.622;23.328;2023-07-28T04:40:46;92967.31;;;14.94;68.83
6198;BME280;3132;42.622;23.328;2023-07-28T04:43:12;92960.06;;;14.78;71.55
6198;BME280;3132;42.622;23.328;2023-07-28T04:45:37;92962.50;;;14.88;71.41
6198;BME280;3132;42.622;23.328;2023-07-28T04:48:03;92943.69;;;14.81;71.92
6198;BME280;3132;42.622;23.328;2023-07-28T04:50:28;92967.50;;;14.98;71.83
6198;BME280;3132;42.622;23.328;2023-07-28T04:52:54;92936.94;;;14.66;70.66
6198;BME280;3132;42.622;23.328;2023-07-28T04:55:20;92960.16;;;15.22;68.82
6198;BME280;3132;42.622;23.328;2023-07-28T04:57:45;92948.22;;;15.38;67.78
6198;BME280;3132;42.622;23.328;2023-07-28T05:00:11;92955.53;;;15.27;71.73
6198;BME280;3132;42.622;23.328;2023-07-28T05:02:36;92965.88;;;15.24;69.42
6198;BME280;3132;42.622;23.328;2023-07-28T05:05:02;92962.06;;;15.30;69.49
6198;BME280;3132;42.622;23.328;2023-07-28T05:07:27;92961.56;;;15.41;68.86
6198;BME280;3132;42.622;23.328;2023-07-28T05:09:54;92953.94;;;15.84;67.47
6198;BME280;3132;42.622;23.328;2023-07-28T05:12:19;92942.28;;;15.76;66.44
6198;BME280;3132;42.622;23.328;2023-07-28T05:14:46;92959.50;;;16.13;65.58
6198;BME280;3132;42.622;23.328;2023-07-28T05:17:11;92968.84;;;15.88;66.14
6198;BME280;3132;42.622;23.328;2023-07-28T05:19:36;92962.81;;;15.66;66.95
6198;BME280;3132;42.622;23.328;2023-07-28T05:22:02;92964.09;;;15.77;67.19
6198;BME280;3132;42.622;23.328;2023-07-28T05:24:27;92960.88;;;15.80;66.71
6198;BME280;3132;42.622;23.328;2023-07-28T05:26:53;92947.94;;;15.92;66.31
6198;BME280;3132;42.622;23.328;2023-07-28T05:29:18;92969.44;;;16.16;65.43
6198;BME280;3132;42.622;23.328;2023-07-28T05:31:45;92958.09;;;16.07;67.01
6198;BME280;3132;42.622;23.328;2023-07-28T05:34:10;92965.72;;;16.17;66.17
6198;BME280;3132;42.622;23.328;2023-07-28T05:36:37;92961.94;;;16.01;66.66
6198;BME280;3132;42.622;23.328;2023-07-28T05:39:02;92965.25;;;16.46;64.79
6198;BME280;3132;42.622;23.328;2023-07-28T05:41:28;92953.22;;;16.70;63.65
6198;BME280;3132;42.622;23.328;2023-07-28T05:43:53;92950.59;;;16.87;62.47
6198;BME280;3132;42.622;23.328;2023-07-28T05:46:19;92957.31;;;16.93;62.95
6198;BME280;3132;42.622;23.328;2023-07-28T05:48:44;92962.44;;;17.15;61.38
6198;BME280;3132;42.622;23.328;2023-07-28T05:51:09;92954.34;;;17.03;61.46
6198;BME280;3132;42.622;23.328;2023-07-28T05:53:35;92960.09;;;17.31;61.15
6198;BME280;3132;42.622;23.328;2023-07-28T05:56:00;92955.59;;;18.46;56.50
6198;BME280;3132;42.622;23.328;2023-07-28T05:58:25;92962.31;;;19.43;52.63
6198;BME280;3132;42.622;23.328;2023-07-28T06:00:51;92966.47;;;21.62;46.76
6198;BME280;3132;42.622;23.328;2023-07-28T06:03:16;92965.72;;;25.30;38.80
6198;BME280;3132;42.622;23.328;2023-07-28T06:05:42;92975.31;;;28.19;31.55
6198;BME280;3132;42.622;23.328;2023-07-28T06:08:08;92975.50;;;29.45;29.59
6198;BME280;3132;42.622;23.328;2023-07-28T06:10:34;92977.63;;;28.13;31.61
6198;BME280;3132;42.622;23.328;2023-07-28T06:12:59;92980.56;;;30.61;27.97
6198;BME280;3132;42.622;23.328;2023-07-28T06:15:25;92986.50;;;30.97;26.53
6198;BME280;3132;42.622;23.328;2023-07-28T06:17:50;92986.19;;;32.20;25.51
6198;BME280;3132;42.622;23.328;2023-07-28T06:20:16;92996.88;;;33.18;24.16
6198;BME280;3132;42.622;23.328;2023-07-28T06:22:41;92992.84;;;33.98;22.70
6198;BME280;3132;42.622;23.328;2023-07-28T06:25:07;92986.88;;;34.07;22.80
6198;BME280;3132;42.622;23.328;2023-07-28T06:27:32;92986.44;;;35.38;21.50
6198;BME280;3132;42.622;23.328;2023-07-28T06:29:58;92970.03;;;35.10;21.13
6198;BME280;3132;42.622;23.328;2023-07-28T06:32:23;92982.75;;;33.07;22.90
6198;BME280;3132;42.622;23.328;2023-07-28T06:34:49;92969.38;;;29.24;27.55
6198;BME280;3132;42.622;23.328;2023-07-28T06:37:15;92989.09;;;33.92;21.90
6198;BME280;3132;42.622;23.328;2023-07-28T06:39:41;92981.31;;;34.34;21.52
6198;BME280;3132;42.622;23.328;2023-07-28T06:42:07;92972.44;;;32.08;24.09
6198;BME280;3132;42.622;23.328;2023-07-28T06:44:32;92965.03;;;28.46;28.21
6198;BME280;3132;42.622;23.328;2023-07-28T06:46:58;92938.00;;;24.44;35.00
6198;BME280;3132;42.622;23.328;2023-07-28T06:49:23;92956.06;;;23.36;38.46
6198;BME280;3132;42.622;23.328;2023-07-28T06:51:49;92957.47;;;21.66;43.64
6198;BME280;3132;42.622;23.328;2023-07-28T06:54:14;92953.94;;;21.11;44.29
6198;BME280;3132;42.622;23.328;2023-07-28T06:56:40;92948.75;;;20.42;48.34
6198;BME280;3132;42.622;23.328;2023-07-28T06:59:07;92945.56;;;20.60;46.06
6198;BME280;3132;42.622;23.328;2023-07-28T07:01:33;92956.84;;;20.13;50.72
6198;BME280;3132;42.622;23.328;2023-07-28T07:03:59;92946.84;;;20.30;49.96
6198;BME280;3132;42.622;23.328;2023-07-28T07:06:24;92937.81;;;20.43;48.89
6198;BME280;3132;42.622;23.328;2023-07-28T07:08:50;92944.09;;;19.94;52.45
6198;BME280;3132;42.622;23.328;2023-07-28T07:11:15;92945.31;;;20.29;51.10
6198;BME280;3132;42.622;23.328;2023-07-28T07:13:41;92952.28;;;20.34;50.22
6198;BME280;3132;42.622;23.328;2023-07-28T07:16:14;92930.31;;;19.68;51.30
6198;BME280;3132;42.622;23.328;2023-07-28T07:18:40;92946.19;;;19.36;54.13
6198;BME280;3132;42.622;23.328;2023-07-28T07:21:05;92945.97;;;20.26;50.26
6198;BME280;3132;42.622;23.328;2023-07-28T07:23:31;92933.97;;;20.08;50.46
6198;BME280;3132;42.622;23.328;2023-07-28T07:25:56;92942.03;;;19.67;52.32
6198;BME280;3132;42.622;23.328;2023-07-28T07:28:22;92947.69;;;20.10;52.73
6198;BME280;3132;42.622;23.328;2023-07-28T07:30:47;92955.06;;;20.73;51.07
6198;BME280;3132;42.622;23.328;2023-07-28T07:33:13;92959.81;;;20.68;49.07
6198;BME280;3132;42.622;23.328;2023-07-28T07:35:39;92945.00;;;20.43;49.38
6198;BME280;3132;42.622;23.328;2023-07-28T07:38:05;92948.84;;;20.33;49.09
6198;BME280;3132;42.622;23.328;2023-07-28T07:40:34;92959.78;;;20.20;51.25
6198;BME280;3132;42.622;23.328;2023-07-28T07:43:00;92954.41;;;20.40;50.78
6198;BME280;3132;42.622;23.328;2023-07-28T07:45:26;92950.63;;;20.65;48.71
6198;BME280;3132;42.622;23.328;2023-07-28T07:47:51;92963.25;;;20.12;51.49
6198;BME280;3132;42.622;23.328;2023-07-28T07:50:16;92968.38;;;19.84;51.03
6198;BME280;3132;42.622;23.328;2023-07-28T07:52:42;92965.44;;;20.42;49.53
6198;BME280;3132;42.622;23.328;2023-07-28T07:55:09;92973.09;;;20.68;49.38
6198;BME280;3132;42.622;23.328;2023-07-28T07:57:36;92978.28;;;20.64;49.63
6198;BME280;3132;42.622;23.328;2023-07-28T08:00:01;92968.66;;;20.60;51.11
6198;BME280;3132;42.622;23.328;2023-07-28T08:02:27;92970.06;;;20.45;50.95
6198;BME280;3132;42.622;23.328;2023-07-28T08:04:52;92969.44;;;20.97;48.71
6198;BME280;3132;42.622;23.328;2023-07-28T08:07:21;92969.66;;;20.55;50.86
6198;BME280;3132;42.622;23.328;2023-07-28T08:09:47;92968.69;;;20.96;48.73
6198;BME280;3132;42.622;23.328;2023-07-28T08:12:13;92971.88;;;21.02;49.39
6198;BME280;3132;42.622;23.328;2023-07-28T08:14:39;92970.66;;;20.87;50.13
6198;BME280;3132;42.622;23.328;2023-07-28T08:17:04;92962.25;;;21.09;49.36
6198;BME280;3132;42.622;23.328;2023-07-28T08:19:30;92968.69;;;21.60;48.47
6198;BME280;3132;42.622;23.328;2023-07-28T08:21:55;92958.91;;;20.52;48.66
6198;BME280;3132;42.622;23.328;2023-07-28T08:24:21;92957.16;;;20.92;50.25
6198;BME280;3132;42.622;23.328;2023-07-28T08:26:46;92954.22;;;21.45;48.41
6198;BME280;3132;42.622;23.328;2023-07-28T08:29:11;92968.00;;;21.75;46.96
6198;BME280;3132;42.622;23.328;2023-07-28T08:31:37;92963.13;;;21.65;46.54
6198;BME280;3132;42.622;23.328;2023-07-28T08:34:02;92948.16;;;21.33;48.48
6198;BME280;3132;42.622;23.328;2023-07-28T08:36:28;92967.69;;;21.92;47.41
6198;BME280;3132;42.622;23.328;2023-07-28T08:38:53;92957.00;;;22.04;45.88
6198;BME280;3132;42.622;23.328;2023-07-28T08:41:19;92960.34;;;22.01;46.47
6198;BME280;3132;42.622;23.328;2023-07-28T08:43:45;92957.75;;;21.89;46.85
6198;BME280;3132;42.622;23.328;2023-07-28T08:46:10;92962.19;;;21.73;47.93
6198;BME280;3132;42.622;23.328;2023-07-28T08:48:36;92954.53;;;22.11;45.23
6198;BME280;3132;42.622;23.328;2023-07-28T08:51:02;92956.94;;;22.16;45.45
6198;BME280;3132;42.622;23.328;2023-07-28T08:53:27;92963.56;;;22.22;44.70
6198;BME280;3132;42.622;23.328;2023-07-28T08:55:53;92958.84;;;22.31;46.31
6198;BME280;3132;42.622;23.328;2023-07-28T08:58:20;92961.66;;;22.66;44.88
6198;BME280;3132;42.622;23.328;2023-07-28T09:00:47;92948.44;;;22.69;42.32
6198;BME280;3132;42.622;23.328;2023-07-28T09:03:17;92950.88;;;22.31;45.74
6198;BME280;3132;42.622;23.328;2023-07-28T09:05:43;92949.13;;;22.66;43.35
6198;BME280;3132;42.622;23.328;2023-07-28T09:08:12;92941.19;;;22.39;44.34
6198;BME280;3132;42.622;23.328;2023-07-28T09:10:46;92921.34;;;22.36;44.81
6198;BME280;3132;42.622;23.328;2023-07-28T09:13:16;92933.97;;;22.86;44.89
6198;BME280;3132;42.622;23.328;2023-07-28T09:15:41;92934.91;;;22.93;42.50
6198;BME280;3132;42.622;23.328;2023-07-28T09:18:12;92933.97;;;23.01;43.66
6198;BME280;3132;42.622;23.328;2023-07-28T09:20:39;92929.75;;;23.00;43.36
6198;BME280;3132;42.622;23.328;2023-07-28T09:23:05;92924.03;;;23.17;44.26
6198;BME280;3132;42.622;23.328;2023-07-28T09:25:31;92922.69;;;23.08;43.32
6198;BME280;3132;42.622;23.328;2023-07-28T09:27:58;92918.41;;;23.03;41.65
6198;BME280;3132;42.622;23.328;2023-07-28T09:30:24;92906.59;;;22.70;44.38
6198;BME280;3132;42.622;23.328;2023-07-28T09:32:52;92912.13;;;22.61;43.42
6198;BME280;3132;42.622;23.328;2023-07-28T09:35:19;92905.88;;;22.88;44.52
6198;BME280;3132;42.622;23.328;2023-07-28T09:37:46;92897.53;;;22.90;42.71
6198;BME280;3132;42.622;23.328;2023-07-28T09:40:14;92901.38;;;23.08;42.87
6198;BME280;3132;42.622;23.328;2023-07-28T09:42:41;92893.34;;;23.23;41.06
6198;BME280;3132;42.622;23.328;2023-07-28T09:45:07;92894.78;;;23.02;41.48
6198;BME280;3132;42.622;23.328;2023-07-28T09:47:34;92889.81;;;23.19;42.35
6198;BME280;3132;42.622;23.328;2023-07-28T09:50:02;92884.13;;;23.55;44.89
6198;BME280;3132;42.622;23.328;2023-07-28T09:52:33;92883.25;;;23.70;41.19
6198;BME280;3132;42.622;23.328;2023-07-28T09:55:05;92890.53;;;23.93;40.55
6198;BME280;3132;42.622;23.328;2023-07-28T09:57:36;92889.91;;;23.99;41.70
6198;BME280;3132;42.622;23.328;2023-07-28T10:00:04;92889.28;;;23.87;41.30
6198;BME280;3132;42.622;23.328;2023-07-28T10:02:30;92887.44;;;24.10;41.49
6198;BME280;3132;42.622;23.328;2023-07-28T10:04:57;92884.31;;;24.27;41.25
6198;BME280;3132;42.622;23.328;2023-07-28T10:07:24;92883.66;;;23.92;39.71
6198;BME280;3132;42.622;23.328;2023-07-28T10:09:49;92878.06;;;23.97;40.96
6198;BME280;3132;42.622;23.328;2023-07-28T10:12:23;92885.56;;;23.91;39.93
6198;BME280;3132;42.622;23.328;2023-07-28T10:15:00;92891.66;;;23.92;40.85
6198;BME280;3132;42.622;23.328;2023-07-28T10:17:32;92894.78;;;23.55;40.55
6198;BME280;3132;42.622;23.328;2023-07-28T10:19:57;92873.31;;;23.48;40.95
6198;BME280;3132;42.622;23.328;2023-07-28T10:22:26;92878.75;;;23.94;40.28
6198;BME280;3132;42.622;23.328;2023-07-28T10:24:56;92873.22;;;24.25;40.31
6198;BME280;3132;42.622;23.328;2023-07-28T10:27:35;92876.03;;;24.58;38.51
6198;BME280;3132;42.622;23.328;2023-07-28T10:30:09;92875.06;;;24.66;40.33
6198;BME280;3132;42.622;23.328;2023-07-28T10:32:39;92871.28;;;24.93;38.21
6198;BME280;3132;42.622;23.328;2023-07-28T10:35:27;92860.03;;;24.13;38.49
6198;BME280;3132;42.622;23.328;2023-07-28T10:37:55;92854.22;;;24.52;37.68
6198;BME280;3132;42.622;23.328;2023-07-28T10:40:39;92857.06;;;24.89;37.97
6198;BME280;3132;42.622;23.328;2023-07-28T10:43:05;92855.44;;;25.07;37.45
6198;BME280;3132;42.622;23.328;2023-07-28T10:45:31;92852.53;;;25.19;37.63
6198;BME280;3132;42.622;23.328;2023-07-28T10:47:58;92853.44;;;25.30;36.30
6198;BME280;3132;42.622;23.328;2023-07-28T10:50:29;92857.56;;;25.24;37.81
6198;BME280;3132;42.622;23.328;2023-07-28T10:52:55;92857.19;;;25.25;36.12
6198;BME280;3132;42.622;23.328;2023-07-28T10:55:26;92846.91;;;24.98;36.81
6198;BME280;3132;42.622;23.328;2023-07-28T10:57:53;92846.56;;;25.29;36.85
6198;BME280;3132;42.622;23.328;2023-07-28T11:00:19;92845.25;;;25.16;36.81
6198;BME280;3132;42.622;23.328;2023-07-28T11:02:46;92833.56;;;24.98;37.28
6198;BME280;3132;42.622;23.328;2023-07-28T11:05:38;92835.09;;;24.99;36.18
6198;BME280;3132;42.622;23.328;2023-07-28T11:08:05;92825.50;;;25.24;35.67
6198;BME280;3132;42.622;23.328;2023-07-28T11:10:32;92827.03;;;25.25;37.19
6198;BME280;3132;42.622;23.328;2023-07-28T11:12:59;92826.97;;;25.51;37.58
6198;BME280;3132;42.622;23.328;2023-07-28T11:15:25;92812.59;;;25.63;33.35
6198;BME280;3132;42.622;23.328;2023-07-28T11:17:52;92764.06;;;25.31;32.84
6198;BME280;3132;42.622;23.328;2023-07-28T11:20:18;92807.47;;;25.84;33.88
6198;BME280;3132;42.622;23.328;2023-07-28T11:23:03;92807.03;;;25.78;30.81
6198;BME280;3132;42.622;23.328;2023-07-28T11:25:30;92810.00;;;26.06;31.39
6198;BME280;3132;42.622;23.328;2023-07-28T11:27:56;92799.34;;;26.13;31.90
6198;BME280;3132;42.622;23.328;2023-07-28T11:30:23;92800.19;;;26.21;31.04
6198;BME280;3132;42.622;23.328;2023-07-28T11:32:50;92793.75;;;25.89;31.79
6198;BME280;3132;42.622;23.328;2023-07-28T11:35:19;92792.53;;;26.19;32.08
6198;BME280;3132;42.622;23.328;2023-07-28T11:37:46;92800.59;;;26.26;30.35
6198;BME280;3132;42.622;23.328;2023-07-28T11:40:14;92797.44;;;26.14;31.85
6198;BME280;3132;42.622;23.328;2023-07-28T11:42:43;92790.44;;;26.49;32.06
6198;BME280;3132;42.622;23.328;2023-07-28T11:45:10;92789.66;;;26.45;30.96
6198;BME280;3132;42.622;23.328;2023-07-28T11:47:36;92789.97;;;26.33;30.80
6198;BME280;3132;42.622;23.328;2023-07-28T11:50:01;92788.06;;;26.37;30.44
6198;BME280;3132;42.622;23.328;2023-07-28T11:52:32;92787.16;;;26.19;30.22
6198;BME280;3132;42.622;23.328;2023-07-28T11:55:01;92789.56;;;26.31;31.16
6198;BME280;3132;42.622;23.328;2023-07-28T11:57:28;92785.50;;;26.51;31.71
6198;BME280;3132;42.622;23.328;2023-07-28T11:59:56;92794.28;;;26.48;32.80
6198;BME280;3132;42.622;23.328;2023-07-28T12:02:30;92780.56;;;26.60;31.86
6198;BME280;3132;42.622;23.328;2023-07-28T12:04:56;92780.53;;;26.53;31.33
6198;BME280;3132;42.622;23.328;2023-07-28T12:07:30;92780.91;;;26.55;32.36
6198;BME280;3132;42.622;23.328;2023-07-28T12:09:56;92782.78;;;26.48;32.02
6198;BME280;3132;42.622;23.328;2023-07-28T12:12:29;92776.59;;;26.40;32.33
6198;BME280;3132;42.622;23.328;2023-07-28T12:14:56;92777.25;;;26.74;32.30
6198;BME280;3132;42.622;23.328;2023-07-28T12:17:29;92778.59;;;26.50;32.50
6198;BME280;3132;42.622;23.328;2023-07-28T12:20:03;92773.00;;;26.69;31.10
6198;BME280;3132;42.622;23.328;2023-07-28T12:22:36;92770.84;;;26.93;32.19
6198;BME280;3132;42.622;23.328;2023-07-28T12:25:01;92757.47;;;27.00;31.89
6198;BME280;3132;42.622;23.328;2023-07-28T12:27:27;92766.97;;;26.87;31.05
6198;BME280;3132;42.622;23.328;2023-07-28T12:29:52;92764.28;;;26.87;31.36
6198;BME280;3132;42.622;23.328;2023-07-28T12:32:18;92750.47;;;26.77;31.23
6198;BME280;3132;42.622;23.328;2023-07-28T12:34:44;92753.94;;;26.85;31.52
6198;BME280;3132;42.622;23.328;2023-07-28T12:37:09;92749.84;;;27.05;32.03
6198;BME280;3132;42.622;23.328;2023-07-28T12:39:38;92755.19;;;27.02;32.86
6198;BME280;3132;42.622;23.328;2023-07-28T12:42:10;92749.50;;;27.14;32.68
6198;BME280;3132;42.622;23.328;2023-07-28T12:44:36;92740.28;;;27.11;32.06
6198;BME280;3132;42.622;23.328;2023-07-28T12:47:02;92751.03;;;27.18;32.70
6198;BME280;3132;42.622;23.328;2023-07-28T12:49:29;92751.34;;;27.03;33.04
6198;BME280;3132;42.622;23.328;2023-07-28T12:51:58;92749.50;;;27.14;33.37
6198;BME280;3132;42.622;23.328;2023-07-28T12:54:24;92753.25;;;26.95;32.59
6198;BME280;3132;42.622;23.328;2023-07-28T12:56:54;92737.94;;;26.99;33.38
6198;BME280;3132;42.622;23.328;2023-07-28T12:59:19;92740.28;;;27.15;33.37
6198;BME280;3132;42.622;23.328;2023-07-28T13:01:45;92737.25;;;27.13;32.11
6198;BME280;3132;42.622;23.328;2023-07-28T13:04:11;92749.47;;;27.07;32.47
6198;BME280;3132;42.622;23.328;2023-07-28T13:06:36;92747.16;;;27.05;32.68
6198;BME280;3132;42.622;23.328;2023-07-28T13:09:02;92747.19;;;27.16;33.40
6198;BME280;3132;42.622;23.328;2023-07-28T13:11:29;92735.41;;;27.34;33.41